Terminal Aerodrome Forecast
Issued by NWS Charleston, WV

Current Version | Previous Version | Graphics & Text | Print | Product List | Glossary On
Versions: 1 2 3 4 5 6 7 8 9 10 11 12 13 14 15 16 17 18 19 20 21 22
000
FTUS41 KRLX 192300
TAFPKB
TAF
KPKB 192324Z 2000/2024 30009G16KT P6SM SKC
     FM200800 31004KT 3SM BR BKN030
     FM201200 31004KT 4SM BR BKN025
     FM201400 33005KT P6SM BKN025
     FM201600 33006KT P6SM BKN045=

USA.gov is the U.S. government's official web portal to all federal, state and local government web resources and services.